Terminal Aerodrome Forecast
Issued by NWS Goodland, KS

Home | Current Version | Previous Version | Text Only | Print | Product List | Glossary On
Versions: 1 2 3 4 5 6 7 8 9 10 11 12 13 14 15 16
000
FTUS43 KGLD 182320
TAFGLD
TAF
KGLD 182320Z 1900/1924 35005KT P6SM SCT200
     FM190300 VRB04KT P6SM BKN060
      TEMPO 1904/1908 3SM BR SCT010
     FM191200 24004KT P6SM SCT010 SCT120
     FM192000 23010KT P6SM SCT200=

USA.gov is the U.S. government's official web portal to all federal, state and local government web resources and services.